createdAt,value
2024-02-29T00:02:22.590Z,5.47
2024-02-29T00:04:49.765Z,4.82
2024-02-29T00:07:18.318Z,5.05
2024-02-29T00:09:45.517Z,5.10
2024-02-29T00:12:12.736Z,5.30
2024-02-29T00:14:40.047Z,5.50
2024-02-29T00:17:07.262Z,4.97
2024-02-29T00:19:34.546Z,5.35
2024-02-29T00:22:01.765Z,4.80
2024-02-29T00:24:30.338Z,4.88
2024-02-29T00:26:57.542Z,5.40
2024-02-29T00:29:24.729Z,4.88
2024-02-29T00:31:52.004Z,4.82
2024-02-29T00:34:19.283Z,5.07
2024-02-29T00:36:46.550Z,5.70
2024-02-29T00:39:15.339Z,5.50
2024-02-29T00:41:44.215Z,4.93
2024-02-29T00:44:11.412Z,4.85
2024-02-29T00:46:38.617Z,4.85
2024-02-29T00:49:06.171Z,4.93
2024-02-29T00:51:33.721Z,5.47
2024-02-29T00:54:00.879Z,5.10
2024-02-29T00:56:28.090Z,5.20
2024-02-29T00:58:56.633Z,4.93
2024-02-29T01:01:23.960Z,5.82
2024-02-29T01:03:51.230Z,5.20
2024-02-29T01:06:18.565Z,4.93
2024-02-29T01:08:45.735Z,5.15
2024-02-29T01:11:13.159Z,5.15
2024-02-29T01:13:40.377Z,5.50
2024-02-29T01:16:08.987Z,4.90
2024-02-29T01:18:36.248Z,5.00
2024-02-29T01:21:03.727Z,5.40
2024-02-29T01:23:30.899Z,5.05
2024-02-29T01:25:58.066Z,4.90
2024-02-29T01:28:25.243Z,5.00
2024-02-29T01:30:52.422Z,5.22
2024-02-29T01:33:20.997Z,4.97
2024-02-29T01:35:48.241Z,4.50
2024-02-29T01:38:15.430Z,5.10
2024-02-29T01:40:45.494Z,4.55
2024-02-29T01:43:12.821Z,5.28
2024-02-29T01:45:40.091Z,5.20
2024-02-29T01:48:09.158Z,4.93
2024-02-29T01:50:39.325Z,5.18
2024-02-29T01:53:06.784Z,4.93
2024-02-29T01:55:34.007Z,5.25
2024-02-29T01:58:02.395Z,4.80
2024-02-29T02:00:29.601Z,4.68
2024-02-29T02:03:17.375Z,5.13
2024-02-29T02:05:46.169Z,4.70
2024-02-29T02:08:14.265Z,5.20
2024-02-29T02:10:41.424Z,5.13
2024-02-29T02:13:08.584Z,4.88
2024-02-29T02:15:35.908Z,5.20
2024-02-29T02:18:03.167Z,5.05
2024-02-29T02:20:31.680Z,5.20
2024-02-29T02:22:58.867Z,5.22
2024-02-29T02:25:26.063Z,5.30
2024-02-29T02:27:53.279Z,5.55
2024-02-29T02:30:20.430Z,4.88
2024-02-29T02:32:47.693Z,4.97
2024-02-29T02:35:14.885Z,4.60
2024-02-29T02:37:43.454Z,4.80
2024-02-29T02:40:11.446Z,4.93
2024-02-29T02:42:38.810Z,4.90
2024-02-29T02:45:07.038Z,5.00
2024-02-29T02:47:34.285Z,5.45
2024-02-29T02:50:01.625Z,4.55
2024-02-29T02:52:28.782Z,4.57
2024-02-29T02:54:57.331Z,4.97
2024-02-29T02:57:24.512Z,5.32
2024-02-29T02:59:51.637Z,4.90
2024-02-29T03:02:18.915Z,4.93
2024-02-29T03:04:46.124Z,4.72
2024-02-29T03:07:13.332Z,5.00
2024-02-29T03:09:40.723Z,5.07
2024-02-29T03:12:10.040Z,5.10
2024-02-29T03:14:37.181Z,5.22
2024-02-29T03:17:04.364Z,4.70
2024-02-29T03:19:31.592Z,5.57
2024-02-29T03:21:58.776Z,4.63
2024-02-29T03:24:26.017Z,4.68
2024-02-29T03:26:53.133Z,4.95
2024-02-29T03:29:22.083Z,4.47
2024-02-29T03:31:49.293Z,4.85
2024-02-29T03:34:16.845Z,4.32
2024-02-29T03:36:44.170Z,4.55
2024-02-29T03:39:11.384Z,4.22
2024-02-29T03:41:38.540Z,4.82
2024-02-29T03:44:05.817Z,4.35
2024-02-29T03:46:34.390Z,4.15
2024-02-29T03:49:01.597Z,4.80
2024-02-29T03:51:28.795Z,4.47
2024-02-29T03:53:55.973Z,4.28
2024-02-29T03:56:23.323Z,4.22
2024-02-29T03:58:50.500Z,4.60
2024-02-29T04:01:17.853Z,4.63
2024-02-29T04:03:46.417Z,4.68
2024-02-29T04:06:13.602Z,4.22
2024-02-29T04:08:40.849Z,4.47
2024-02-29T04:11:08.218Z,4.25
2024-02-29T04:13:35.371Z,4.22
2024-02-29T04:16:02.622Z,4.40
2024-02-29T04:18:29.830Z,4.68
2024-02-29T04:20:58.381Z,4.43
2024-02-29T04:23:25.586Z,4.70
2024-02-29T04:25:52.701Z,4.65
2024-02-29T04:28:19.910Z,4.28
2024-02-29T04:30:47.151Z,4.32
2024-02-29T04:33:14.454Z,4.32
2024-02-29T04:35:41.665Z,4.53
2024-02-29T04:38:10.183Z,4.80
2024-02-29T04:40:37.350Z,5.07
2024-02-29T04:43:04.936Z,4.65
2024-02-29T04:45:32.185Z,4.63
2024-02-29T04:47:59.397Z,7.32
2024-02-29T04:50:26.582Z,6.35
2024-02-29T04:52:53.776Z,5.35
2024-02-29T04:55:22.288Z,5.43
2024-02-29T04:57:49.506Z,5.38
2024-02-29T05:00:17.627Z,4.78
2024-02-29T05:02:44.776Z,5.07
2024-02-29T05:05:12.978Z,5.57
2024-02-29T05:07:40.317Z,4.85
2024-02-29T05:10:08.654Z,5.00
2024-02-29T05:12:37.458Z,4.80
2024-02-29T05:15:05.577Z,5.00
2024-02-29T05:17:32.765Z,5.10
2024-02-29T05:19:59.946Z,6.07
2024-02-29T05:22:27.181Z,4.90
2024-02-29T05:24:54.403Z,5.35
2024-02-29T05:27:21.614Z,4.97
2024-02-29T05:29:50.588Z,5.20
2024-02-29T05:32:18.805Z,5.03
2024-02-29T05:34:46.428Z,5.10
2024-02-29T05:37:13.800Z,5.20
2024-02-29T05:39:41.962Z,4.78
2024-02-29T05:42:09.192Z,5.18
2024-02-29T05:44:36.373Z,5.00
2024-02-29T05:47:05.051Z,5.22
2024-02-29T05:49:32.235Z,5.30
2024-02-29T05:51:59.585Z,5.13
2024-02-29T05:54:26.836Z,5.18
2024-02-29T05:56:54.927Z,4.97
2024-02-29T05:59:22.172Z,5.18
2024-02-29T06:01:49.554Z,5.38
2024-02-29T06:04:18.229Z,5.25
2024-02-29T06:06:45.552Z,5.15
2024-02-29T06:09:12.729Z,4.95
2024-02-29T06:11:39.905Z,5.53
2024-02-29T06:14:07.156Z,5.30
2024-02-29T06:16:34.407Z,5.47
2024-02-29T06:19:01.764Z,4.78
2024-02-29T06:21:30.306Z,4.95
2024-02-29T06:23:57.423Z,5.13
2024-02-29T06:26:24.590Z,5.25
2024-02-29T06:28:51.779Z,5.30
2024-02-29T06:31:19.320Z,5.55
2024-02-29T06:33:46.552Z,5.18
2024-02-29T06:36:13.814Z,5.40
2024-02-29T06:38:42.395Z,5.18
2024-02-29T06:41:10.185Z,5.28
2024-02-29T06:43:37.409Z,5.30
2024-02-29T06:46:04.914Z,5.20
2024-02-29T06:48:32.309Z,4.45
2024-02-29T06:50:59.510Z,5.20
2024-02-29T06:53:26.666Z,4.95
2024-02-29T06:55:55.211Z,5.13
2024-02-29T06:58:22.593Z,5.25
2024-02-29T07:00:50.059Z,5.60
2024-02-29T07:03:17.339Z,4.90
2024-02-29T07:05:45.009Z,5.30
2024-02-29T07:08:12.163Z,5.43
2024-02-29T07:10:39.315Z,5.65
2024-02-29T07:13:07.904Z,5.65
2024-02-29T07:15:35.264Z,5.20
2024-02-29T07:18:02.692Z,5.20
2024-02-29T07:20:29.968Z,5.50
2024-02-29T07:22:57.621Z,5.40
2024-02-29T07:25:24.830Z,5.25
2024-02-29T07:27:52.090Z,5.28
2024-02-29T07:30:20.917Z,5.18
2024-02-29T07:32:48.271Z,5.93
2024-02-29T07:35:15.729Z,5.10
2024-02-29T07:37:42.900Z,5.40
2024-02-29T07:40:10.495Z,5.63
2024-02-29T07:42:38.280Z,5.43
2024-02-29T07:45:07.516Z,5.75
2024-02-29T07:47:36.256Z,5.82
2024-02-29T07:50:03.827Z,5.22
2024-02-29T07:52:30.987Z,5.00
2024-02-29T07:54:58.183Z,5.47
2024-02-29T07:57:25.371Z,5.43
2024-02-29T07:59:52.575Z,5.53
2024-02-29T08:02:21.186Z,5.57
2024-02-29T08:04:51.294Z,5.45
2024-02-29T08:07:18.642Z,5.03
2024-02-29T08:09:45.974Z,5.65
2024-02-29T08:12:13.217Z,5.25
2024-02-29T08:14:40.352Z,5.35
2024-02-29T08:17:07.478Z,5.45
2024-02-29T08:19:34.660Z,5.72
2024-02-29T08:22:03.518Z,5.78
2024-02-29T08:24:31.148Z,5.43
2024-02-29T08:26:58.347Z,5.30
2024-02-29T08:29:25.556Z,5.25
2024-02-29T08:31:52.755Z,5.00
2024-02-29T08:34:20.076Z,5.78
2024-02-29T08:36:47.260Z,5.13
2024-02-29T08:39:16.256Z,5.28
2024-02-29T08:41:43.463Z,5.28
2024-02-29T08:44:10.663Z,5.45
2024-02-29T08:46:37.811Z,5.90
2024-02-29T08:49:05.091Z,5.40
2024-02-29T08:51:32.271Z,5.03
2024-02-29T08:53:59.461Z,5.32
2024-02-29T08:56:28.279Z,5.70
2024-02-29T08:58:55.702Z,5.70
2024-02-29T09:01:22.957Z,5.85
2024-02-29T09:03:50.333Z,5.47
2024-02-29T09:06:17.496Z,5.60
2024-02-29T09:08:44.647Z,5.53
2024-02-29T09:11:11.912Z,5.65
2024-02-29T09:13:40.527Z,5.65
2024-02-29T09:16:07.909Z,5.65
2024-02-29T09:18:35.229Z,5.53
2024-02-29T09:21:02.414Z,5.93
2024-02-29T09:23:30.183Z,5.70
2024-02-29T09:25:57.391Z,5.40
2024-02-29T09:28:24.582Z,5.10
2024-02-29T09:30:53.243Z,5.70
2024-02-29T09:33:20.394Z,5.75
2024-02-29T09:35:47.265Z,5.38
2024-02-29T09:38:14.130Z,5.78
2024-02-29T09:40:46.413Z,5.20
2024-02-29T09:43:20.123Z,5.70
2024-02-29T09:45:49.376Z,5.30
2024-02-29T09:48:18.094Z,6.00
2024-02-29T09:50:45.256Z,6.00
2024-02-29T09:53:16.102Z,5.95
2024-02-29T09:55:44.088Z,5.28
2024-02-29T09:58:11.893Z,5.53
2024-02-29T10:00:39.212Z,5.57
2024-02-29T10:03:07.719Z,5.80
2024-02-29T10:05:36.232Z,5.80
2024-02-29T10:08:06.754Z,5.45
2024-02-29T10:10:34.237Z,5.78
2024-02-29T10:13:01.536Z,5.90
2024-02-29T10:15:29.618Z,5.68
2024-02-29T10:17:56.705Z,6.03
2024-02-29T10:20:23.857Z,5.97
2024-02-29T10:22:52.444Z,6.00
2024-02-29T10:25:20.771Z,5.97
2024-02-29T10:27:48.578Z,5.95
2024-02-29T10:30:17.336Z,5.95
2024-02-29T10:32:45.803Z,5.85
2024-02-29T10:35:19.868Z,6.07
2024-02-29T10:37:48.386Z,5.43
2024-02-29T10:40:17.131Z,5.60
2024-02-29T10:42:44.500Z,6.07
2024-02-29T10:45:13.696Z,5.85
2024-02-29T10:47:46.665Z,5.68
2024-02-29T10:50:18.751Z,5.90
2024-02-29T10:52:49.665Z,5.82
2024-02-29T10:55:23.873Z,6.15
2024-02-29T11:00:21.692Z,6.15
2024-02-29T11:02:49.423Z,5.68
2024-02-29T11:05:17.797Z,5.70
2024-02-29T11:07:45.641Z,5.68
2024-02-29T11:10:13.553Z,5.70
2024-02-29T11:12:42.156Z,5.88
2024-02-29T11:15:11.678Z,6.07
2024-02-29T11:17:39.339Z,5.65
2024-02-29T11:20:07.140Z,5.47
2024-02-29T11:22:35.915Z,5.47
2024-02-29T11:25:06.800Z,5.93
2024-02-29T11:27:34.908Z,5.70
2024-02-29T11:30:04.904Z,5.93
2024-02-29T11:32:32.213Z,5.40
2024-02-29T11:34:59.498Z,5.75
2024-02-29T11:37:32.464Z,5.40
2024-02-29T11:40:02.058Z,5.70
2024-02-29T11:42:29.345Z,5.53
2024-02-29T11:44:56.584Z,5.95
2024-02-29T11:47:25.157Z,6.25
2024-02-29T11:49:52.354Z,5.63
2024-02-29T11:52:19.800Z,6.47
2024-02-29T11:54:47.383Z,5.57
2024-02-29T11:57:14.631Z,5.85
2024-02-29T11:59:41.804Z,5.22
2024-02-29T12:02:09.527Z,6.18
2024-02-29T12:04:38.079Z,5.93
2024-02-29T12:07:07.166Z,6.22
2024-02-29T12:09:34.580Z,5.38
2024-02-29T12:12:02.094Z,6.05
2024-02-29T12:14:29.595Z,5.93
2024-02-29T12:16:56.915Z,5.57
2024-02-29T12:19:24.178Z,6.05
2024-02-29T12:21:55.581Z,5.95
2024-02-29T12:24:23.183Z,5.75
2024-02-29T12:26:50.753Z,5.70
2024-02-29T12:29:18.022Z,5.50
2024-02-29T12:31:45.664Z,5.85
2024-02-29T12:34:12.903Z,6.20
2024-02-29T12:36:40.217Z,5.43
2024-02-29T12:39:08.800Z,5.53
2024-02-29T12:41:38.189Z,5.97
2024-02-29T12:44:05.664Z,5.38
2024-02-29T12:46:32.940Z,5.63
2024-02-29T12:49:00.138Z,5.30
2024-02-29T12:51:27.291Z,5.82
2024-02-29T12:53:54.522Z,5.68
2024-02-29T12:56:23.349Z,5.25
2024-02-29T12:58:50.515Z,5.40
2024-02-29T13:01:17.938Z,5.60
2024-02-29T13:03:46.791Z,5.63
2024-02-29T13:06:14.067Z,5.90
2024-02-29T13:08:41.284Z,5.20
2024-02-29T13:11:08.491Z,5.57
2024-02-29T13:13:37.040Z,5.15
2024-02-29T13:16:05.033Z,5.63
2024-02-29T13:18:32.367Z,5.57
2024-02-29T13:21:01.311Z,5.35
2024-02-29T13:23:29.641Z,4.90
2024-02-29T13:25:57.017Z,5.15
2024-02-29T13:28:24.482Z,5.10
2024-02-29T13:30:53.098Z,5.47
2024-02-29T13:33:20.342Z,5.05
2024-02-29T13:35:47.622Z,5.30
2024-02-29T13:38:14.913Z,5.35
2024-02-29T13:40:42.080Z,5.13
2024-02-29T13:43:09.342Z,5.07
2024-02-29T13:45:37.722Z,5.30
2024-02-29T13:48:07.126Z,5.70
2024-02-29T13:50:34.373Z,5.38
2024-02-29T13:53:01.584Z,5.18
2024-02-29T13:55:28.840Z,4.88
2024-02-29T13:57:56.382Z,5.10
2024-02-29T14:00:23.630Z,5.13
2024-02-29T14:02:50.925Z,4.93
2024-02-29T14:05:19.465Z,5.40
2024-02-29T14:07:48.983Z,5.00
2024-02-29T14:10:16.823Z,4.85
2024-02-29T14:12:44.156Z,5.13
2024-02-29T14:15:11.392Z,5.13
2024-02-29T14:17:39.559Z,4.97
2024-02-29T14:20:07.824Z,5.57
2024-02-29T14:22:36.419Z,5.30
2024-02-29T14:25:04.169Z,4.80
2024-02-29T14:27:31.570Z,4.93
2024-02-29T14:29:58.762Z,4.78
2024-02-29T14:32:25.957Z,5.10
2024-02-29T14:34:53.148Z,4.47
2024-02-29T14:37:20.601Z,4.90
2024-02-29T14:39:49.286Z,5.18
2024-02-29T14:42:16.525Z,4.97
2024-02-29T14:44:43.725Z,5.18
2024-02-29T14:47:10.933Z,5.13
2024-02-29T14:49:38.182Z,5.07
2024-02-29T14:52:05.409Z,4.93
2024-02-29T14:54:32.684Z,4.60
2024-02-29T14:57:01.711Z,4.80
2024-02-29T14:59:28.963Z,4.97
2024-02-29T15:01:56.330Z,4.78
2024-02-29T15:04:23.628Z,4.63
2024-02-29T15:06:51.025Z,4.28
2024-02-29T15:09:18.356Z,4.88
2024-02-29T15:11:45.657Z,4.70
2024-02-29T15:14:14.330Z,4.75
2024-02-29T15:16:41.565Z,4.85
2024-02-29T15:19:08.835Z,4.28
2024-02-29T15:21:36.109Z,4.32
2024-02-29T15:24:03.453Z,4.38
2024-02-29T15:26:30.645Z,4.57
2024-02-29T15:28:57.819Z,4.38
2024-02-29T15:31:26.509Z,4.93
2024-02-29T15:33:53.685Z,4.65
2024-02-29T15:36:20.998Z,4.63
2024-02-29T15:38:48.201Z,4.50
2024-02-29T15:41:15.500Z,4.55
2024-02-29T15:43:42.712Z,4.57
2024-02-29T15:46:10.040Z,5.20
2024-02-29T15:48:38.629Z,4.60
2024-02-29T15:51:06.020Z,4.93
2024-02-29T15:53:33.527Z,4.53
2024-02-29T15:56:02.660Z,4.78
2024-02-29T15:58:32.238Z,4.53
2024-02-29T16:00:59.508Z,4.15
2024-02-29T16:03:26.714Z,4.47
2024-02-29T16:05:55.289Z,4.43
2024-02-29T16:08:22.477Z,4.78
2024-02-29T16:10:49.709Z,4.93
2024-02-29T16:13:17.445Z,4.47
2024-02-29T16:15:44.820Z,4.28
2024-02-29T16:18:12.082Z,4.05
2024-02-29T16:20:39.277Z,4.22
2024-02-29T16:23:07.792Z,4.25
2024-02-29T16:25:35.161Z,4.60
2024-02-29T16:28:02.844Z,4.45
2024-02-29T16:30:30.033Z,4.10
2024-02-29T16:32:57.501Z,4.57
2024-02-29T16:35:25.066Z,4.97
2024-02-29T16:37:52.390Z,4.47
2024-02-29T16:40:20.996Z,4.95
2024-02-29T16:42:48.297Z,4.72
2024-02-29T16:45:15.599Z,4.60
2024-02-29T16:47:43.402Z,3.83
2024-02-29T16:50:10.826Z,4.38
2024-02-29T16:52:38.044Z,4.25
2024-02-29T16:55:05.729Z,3.90
2024-02-29T16:57:34.594Z,4.18
2024-02-29T17:00:01.814Z,4.00
2024-02-29T17:02:28.988Z,3.97
2024-02-29T17:04:56.250Z,3.95
2024-02-29T17:07:23.575Z,4.45
2024-02-29T17:09:50.946Z,4.47
2024-02-29T17:12:18.237Z,4.22
2024-02-29T17:14:46.798Z,4.53
2024-02-29T17:17:14.109Z,4.30
2024-02-29T17:19:41.349Z,4.10
2024-02-29T17:22:08.592Z,4.68
2024-02-29T17:24:35.851Z,4.80
2024-02-29T17:27:03.145Z,4.70
2024-02-29T17:29:30.383Z,4.82
2024-02-29T17:31:58.957Z,4.65
2024-02-29T17:34:26.240Z,4.38
2024-02-29T17:36:53.526Z,4.45
2024-02-29T17:39:20.738Z,4.90
2024-02-29T17:41:47.958Z,5.03
2024-02-29T17:44:15.149Z,4.53
2024-02-29T17:46:43.257Z,4.38
2024-02-29T17:49:11.974Z,5.15
2024-02-29T17:51:44.085Z,4.80
2024-02-29T17:54:11.346Z,4.82
2024-02-29T17:56:38.790Z,4.70
2024-02-29T17:59:05.983Z,5.03
2024-02-29T18:01:33.275Z,4.90
2024-02-29T18:04:00.544Z,5.00
2024-02-29T18:06:29.100Z,5.05
2024-02-29T18:08:56.293Z,4.55
2024-02-29T18:11:23.523Z,5.28
2024-02-29T18:13:50.843Z,4.95
2024-02-29T18:16:18.048Z,4.95
2024-02-29T18:18:45.349Z,4.85
2024-02-29T18:21:12.558Z,5.38
2024-02-29T18:23:41.122Z,5.13
2024-02-29T18:26:08.549Z,5.05
2024-02-29T18:28:35.761Z,5.35
2024-02-29T18:31:03.006Z,5.30
2024-02-29T18:33:30.272Z,5.20
2024-02-29T18:35:57.593Z,5.47
2024-02-29T18:38:24.764Z,5.05
2024-02-29T18:40:53.335Z,5.50
2024-02-29T18:43:20.634Z,5.10
2024-02-29T18:45:57.055Z,5.18
2024-02-29T18:48:30.113Z,4.75
2024-02-29T18:50:57.263Z,5.22
2024-02-29T18:53:24.441Z,5.28
2024-02-29T18:55:52.993Z,5.63
2024-02-29T18:58:20.241Z,5.43
2024-02-29T19:00:47.570Z,5.57
2024-02-29T19:03:14.832Z,5.90
2024-02-29T19:05:42.051Z,5.80
2024-02-29T19:08:09.230Z,5.20
2024-02-29T19:10:36.459Z,5.45
2024-02-29T19:13:05.149Z,5.05
2024-02-29T19:15:32.378Z,5.90
2024-02-29T19:17:59.697Z,5.78
2024-02-29T19:20:26.917Z,5.30
2024-02-29T19:22:54.119Z,5.40
2024-02-29T19:25:21.357Z,5.97
2024-02-29T19:27:48.615Z,5.43
2024-02-29T19:30:19.424Z,5.45
2024-02-29T19:32:47.330Z,5.85
2024-02-29T19:35:14.737Z,5.38
2024-02-29T19:37:41.939Z,5.53
2024-02-29T19:40:09.837Z,5.47
2024-02-29T19:42:37.047Z,5.50
2024-02-29T19:45:05.090Z,5.60
2024-02-29T19:47:33.753Z,5.60
2024-02-29T19:50:00.961Z,5.10
2024-02-29T19:52:28.121Z,5.13
2024-02-29T19:54:55.354Z,5.63
2024-02-29T19:57:22.625Z,5.35
2024-02-29T19:59:49.835Z,5.38
2024-02-29T20:02:17.023Z,5.18
2024-02-29T20:04:45.680Z,4.80
2024-02-29T20:07:12.718Z,5.50
2024-02-29T20:09:40.085Z,5.43
2024-02-29T20:12:07.778Z,5.53
2024-02-29T20:14:34.964Z,5.30
2024-02-29T20:17:02.196Z,6.00
2024-02-29T20:19:30.928Z,5.38
2024-02-29T20:21:59.769Z,5.80
2024-02-29T20:24:26.985Z,5.38
2024-02-29T20:26:54.193Z,6.07
2024-02-29T20:29:21.411Z,5.53
2024-02-29T20:31:48.921Z,5.20
2024-02-29T20:34:16.177Z,4.95
2024-02-29T20:36:43.471Z,4.85
2024-02-29T20:39:12.065Z,4.90
2024-02-29T20:41:39.250Z,5.53
2024-02-29T20:44:06.443Z,5.18
2024-02-29T20:46:33.754Z,5.38
2024-02-29T20:49:01.031Z,5.10
2024-02-29T20:51:28.244Z,5.43
2024-02-29T20:53:55.458Z,5.45
2024-02-29T20:56:24.011Z,5.80
2024-02-29T20:58:51.224Z,5.47
2024-02-29T21:01:18.560Z,5.65
2024-02-29T21:03:45.815Z,5.20
2024-02-29T21:06:13.202Z,5.28
2024-02-29T21:08:40.612Z,5.53
2024-02-29T21:11:07.787Z,5.53
2024-02-29T21:13:36.389Z,5.60
2024-02-29T21:16:04.198Z,5.55
2024-02-29T21:18:31.534Z,6.07
2024-02-29T21:20:58.760Z,5.75
2024-02-29T21:23:26.039Z,5.45
2024-02-29T21:25:53.244Z,5.43
2024-02-29T21:28:20.613Z,5.22
2024-02-29T21:30:49.375Z,5.57
2024-02-29T21:33:16.911Z,5.55
2024-02-29T21:35:44.304Z,5.65
2024-02-29T21:38:11.495Z,5.80
2024-02-29T21:40:38.721Z,5.63
2024-02-29T21:43:05.985Z,5.43
2024-02-29T21:45:33.200Z,6.03
2024-02-29T21:48:01.778Z,5.55
2024-02-29T21:50:29.004Z,5.72
2024-02-29T21:52:56.250Z,6.00
2024-02-29T21:55:23.490Z,5.60
2024-02-29T21:57:50.701Z,6.10
2024-02-29T22:00:18.285Z,5.07
2024-02-29T22:02:45.439Z,5.30
2024-02-29T22:05:14.356Z,5.60
2024-02-29T22:07:41.746Z,5.80
2024-02-29T22:10:09.157Z,5.70
2024-02-29T22:12:37.645Z,5.45
2024-02-29T22:15:05.937Z,5.93
2024-02-29T22:17:33.137Z,5.65
2024-02-29T22:20:00.392Z,5.88
2024-02-29T22:22:29.160Z,6.03
2024-02-29T22:24:57.291Z,6.18
2024-02-29T22:27:24.541Z,6.25
2024-02-29T22:29:51.728Z,6.25
2024-02-29T22:32:18.892Z,5.90
2024-02-29T22:34:46.103Z,5.90
2024-02-29T22:37:14.903Z,6.05
2024-02-29T22:39:44.491Z,5.97
2024-02-29T22:42:11.670Z,5.47
2024-02-29T22:44:38.881Z,5.75
2024-02-29T22:47:06.361Z,5.60
2024-02-29T22:49:33.630Z,6.07
2024-02-29T22:52:00.884Z,5.50
2024-02-29T22:54:28.131Z,6.00
2024-02-29T22:56:56.708Z,5.60
2024-02-29T22:59:23.893Z,5.90
2024-02-29T23:01:51.161Z,5.88
2024-02-29T23:04:18.578Z,5.95
2024-02-29T23:06:46.391Z,5.82
2024-02-29T23:09:13.811Z,5.32
2024-02-29T23:11:41.329Z,5.28
2024-02-29T23:14:09.967Z,5.35
2024-02-29T23:16:37.199Z,5.18
2024-02-29T23:19:04.589Z,5.50
2024-02-29T23:21:31.934Z,5.30
2024-02-29T23:23:59.124Z,5.65
2024-02-29T23:26:26.305Z,5.32
2024-02-29T23:28:53.616Z,5.60
2024-02-29T23:31:22.191Z,5.53
2024-02-29T23:33:49.486Z,6.00
2024-02-29T23:36:16.851Z,5.68
2024-02-29T23:38:44.046Z,5.50
2024-02-29T23:41:11.277Z,5.25
2024-02-29T23:43:38.478Z,5.63
2024-02-29T23:46:05.746Z,5.03
2024-02-29T23:48:34.299Z,5.18
2024-02-29T23:51:01.501Z,6.07
2024-02-29T23:53:28.680Z,5.38
2024-02-29T23:55:55.858Z,5.75
2024-02-29T23:58:23.089Z,5.47
